createdAt,value
2018-09-22T00:04:00.770Z,101142.00
2018-09-22T00:09:07.487Z,101146.00
2018-09-22T00:14:11.591Z,101150.00
2018-09-22T00:19:15.486Z,101152.00
2018-09-22T00:24:19.590Z,101162.00
2018-09-22T00:29:24.063Z,101168.00
2018-09-22T00:34:29.218Z,101174.00
2018-09-22T00:39:33.069Z,101179.00
2018-09-22T00:44:37.254Z,101174.00
2018-09-22T00:49:41.102Z,101172.00
2018-09-22T00:54:45.199Z,101184.00
2018-09-22T00:59:49.714Z,101180.00
2018-09-22T01:04:53.887Z,101196.00
2018-09-22T01:09:58.657Z,101193.00
2018-09-22T01:15:02.770Z,101199.00
2018-09-22T01:20:07.842Z,101199.00
2018-09-22T01:25:11.973Z,101204.00
2018-09-22T01:30:16.083Z,101208.00
2018-09-22T01:35:20.215Z,101217.00
2018-09-22T01:40:24.414Z,101223.00
2018-09-22T01:45:28.520Z,101228.00
2018-09-22T01:50:32.643Z,101219.00
2018-09-22T01:55:36.865Z,101234.00
2018-09-22T02:00:41.003Z,101229.00
2018-09-22T02:05:45.111Z,101235.00
2018-09-22T02:10:49.199Z,101235.00
2018-09-22T02:15:53.081Z,101230.00
2018-09-22T02:20:56.905Z,101242.00
2018-09-22T02:26:00.742Z,101254.00
2018-09-22T02:31:04.823Z,101259.00
2018-09-22T02:36:08.909Z,101255.00
2018-09-22T02:41:13.234Z,101267.00
2018-09-22T02:46:17.282Z,101267.00
2018-09-22T02:51:21.333Z,101265.00
2018-09-22T02:56:25.479Z,101256.00
2018-09-22T03:01:29.555Z,101246.00
2018-09-22T03:06:33.698Z,101238.00
2018-09-22T03:11:37.493Z,101260.00
2018-09-22T03:16:42.325Z,101249.00
2018-09-22T03:21:46.254Z,101253.00
2018-09-22T03:26:50.317Z,101239.00
2018-09-22T03:31:54.186Z,101239.00
2018-09-22T03:36:58.234Z,101248.00
2018-09-22T03:42:02.068Z,101251.00
2018-09-22T03:47:06.452Z,101247.00
2018-09-22T03:52:10.547Z,101249.00
2018-09-22T03:57:14.405Z,101250.00
2018-09-22T04:02:18.556Z,101244.00
2018-09-22T04:07:22.387Z,101244.00
2018-09-22T04:12:26.482Z,101241.00
2018-09-22T04:17:30.546Z,101252.00
2018-09-22T04:22:34.369Z,101249.00
2018-09-22T04:27:38.459Z,101254.00
2018-09-22T04:32:43.798Z,101264.00
2018-09-22T04:37:47.866Z,101277.00
2018-09-22T04:42:52.166Z,101275.00
2018-09-22T04:47:56.230Z,101284.00
2018-09-22T04:53:00.296Z,101284.00
2018-09-22T04:58:04.402Z,101284.00
2018-09-22T05:03:08.493Z,101298.00
2018-09-22T05:08:12.594Z,101312.00
2018-09-22T05:13:16.661Z,101308.00
2018-09-22T05:18:20.485Z,101311.00
2018-09-22T05:23:24.582Z,101316.00
2018-09-22T05:28:28.744Z,101327.00
2018-09-22T05:33:32.890Z,101329.00
2018-09-22T05:38:37.070Z,101329.00
2018-09-22T05:43:41.146Z,101334.00
2018-09-22T05:48:45.233Z,101357.00
2018-09-22T05:53:49.295Z,101362.00
2018-09-22T05:58:53.347Z,101361.00
2018-09-22T06:03:57.727Z,101370.00
2018-09-22T06:09:01.691Z,101356.00
2018-09-22T06:14:14.456Z,101358.00
2018-09-22T06:19:19.775Z,101357.00
2018-09-22T06:24:23.983Z,101353.00
2018-09-22T06:29:28.058Z,101369.00
2018-09-22T06:34:32.137Z,101376.00
2018-09-22T06:39:36.215Z,101365.00
2018-09-22T06:44:40.357Z,101348.00
2018-09-22T06:49:44.443Z,101344.00
2018-09-22T06:54:48.306Z,101345.00
2018-09-22T06:59:52.368Z,101349.00
2018-09-22T07:04:56.197Z,101359.00
2018-09-22T07:10:00.266Z,101377.00
2018-09-22T07:15:04.350Z,101375.00
2018-09-22T07:20:08.225Z,101372.00
2018-09-22T07:25:12.351Z,101386.00
2018-09-22T07:30:16.220Z,101399.00
2018-09-22T07:35:20.379Z,101409.00
2018-09-22T07:40:24.862Z,101425.00
2018-09-22T07:45:28.914Z,101425.00
2018-09-22T07:50:32.725Z,101445.00
2018-09-22T07:55:36.526Z,101465.00
2018-09-22T08:00:40.716Z,101470.00
2018-09-22T08:05:44.785Z,101465.00
2018-09-22T08:10:48.861Z,101462.00
2018-09-22T08:15:52.989Z,101447.00
2018-09-22T08:20:57.052Z,101466.00
2018-09-22T08:26:05.679Z,101471.00
2018-09-22T08:31:09.793Z,101493.00
2018-09-22T08:36:13.725Z,101490.00
2018-09-22T08:41:17.756Z,101475.00
2018-09-22T08:46:21.801Z,101454.00
2018-09-22T08:51:25.927Z,101462.00
2018-09-22T08:56:29.981Z,101463.00
2018-09-22T09:01:34.064Z,101466.00
2018-09-22T09:06:37.943Z,101468.00
2018-09-22T09:11:42.050Z,101450.00
2018-09-22T09:16:45.894Z,101455.00
2018-09-22T09:21:49.957Z,101435.00
2018-09-22T09:26:54.119Z,101451.00
2018-09-22T09:31:58.214Z,101464.00
2018-09-22T09:37:02.081Z,101470.00
2018-09-22T09:42:05.924Z,101453.00
2018-09-22T09:47:10.161Z,101429.00
2018-09-22T09:52:14.253Z,101416.00
2018-09-22T09:57:18.331Z,101395.00
2018-09-22T10:02:22.152Z,101395.00
2018-09-22T10:07:26.304Z,101385.00
2018-09-22T10:12:30.363Z,101374.00
2018-09-22T10:17:34.173Z,101374.00
2018-09-22T10:22:38.749Z,101367.00
2018-09-22T10:27:42.787Z,101377.00
2018-09-22T10:32:46.900Z,101371.00
2018-09-22T10:37:51.009Z,101349.00
2018-09-22T10:42:55.146Z,101345.00
2018-09-22T10:47:59.326Z,101349.00
2018-09-22T10:53:03.398Z,101335.00
2018-09-22T10:58:07.454Z,101333.00
2018-09-22T11:03:11.565Z,101333.00
2018-09-22T11:08:15.380Z,101343.00
2018-09-22T11:13:19.225Z,101332.00
2018-09-22T11:18:23.281Z,101336.00
2018-09-22T11:23:27.124Z,101329.00
2018-09-22T11:28:31.190Z,101335.00
2018-09-22T11:33:35.249Z,101321.00
2018-09-22T11:38:39.409Z,101323.00
2018-09-22T11:43:43.462Z,101312.00
2018-09-22T11:48:47.265Z,101295.00
2018-09-22T11:53:51.088Z,101289.00
2018-09-22T11:58:55.000Z,101280.00
2018-09-22T12:03:59.068Z,101283.00
2018-09-22T12:09:03.165Z,101292.00
2018-09-22T12:14:07.015Z,101295.00
2018-09-22T12:19:11.109Z,101297.00
2018-09-22T12:24:15.246Z,101296.00
2018-09-22T12:29:19.092Z,101301.00
2018-09-22T12:34:22.941Z,101301.00
2018-09-22T12:39:26.989Z,101284.00
2018-09-22T12:44:30.822Z,101267.00
2018-09-22T12:49:34.881Z,101175.00
2018-09-22T12:54:39.465Z,101136.00
2018-09-22T12:59:43.268Z,100991.00
2018-09-22T13:04:47.333Z,101050.00
2018-09-22T13:09:51.383Z,101049.00
2018-09-22T13:14:55.570Z,101059.00
2018-09-22T13:19:59.635Z,101152.00
2018-09-22T13:25:03.732Z,101124.00
2018-09-22T13:30:08.572Z,101076.00
2018-09-22T13:35:12.394Z,101128.00
2018-09-22T13:40:16.468Z,101043.00
2018-09-22T13:45:20.533Z,101126.00
2018-09-22T13:50:24.506Z,100996.00
2018-09-22T13:55:28.353Z,101129.00
2018-09-22T14:00:32.401Z,101195.00
2018-09-22T14:05:36.529Z,101198.00
2018-09-22T14:10:40.678Z,101227.00
2018-09-22T14:15:44.737Z,101240.00
2018-09-22T14:20:48.786Z,101160.00
2018-09-22T14:25:52.866Z,101117.00
2018-09-22T14:30:56.695Z,101078.00
2018-09-22T14:36:00.774Z,101082.00
2018-09-22T14:41:04.647Z,101092.00
2018-09-22T14:46:09.973Z,101072.00
2018-09-22T14:51:14.036Z,101000.00
2018-09-22T14:56:18.113Z,100999.00
2018-09-22T15:01:21.916Z,100986.00
2018-09-22T15:06:25.738Z,101054.00
2018-09-22T15:11:29.805Z,101025.00
2018-09-22T15:16:33.614Z,101042.00
2018-09-22T15:21:37.753Z,101021.00
2018-09-22T15:26:42.557Z,101039.00
2018-09-22T15:31:46.609Z,101020.00
2018-09-22T15:36:50.666Z,101039.00
2018-09-22T15:41:54.813Z,100990.00
2018-09-22T15:46:58.861Z,100987.00
2018-09-22T15:52:02.948Z,101054.00
2018-09-22T15:57:06.738Z,101037.00
2018-09-22T16:02:10.841Z,101070.00
2018-09-22T16:07:14.887Z,101073.00
2018-09-22T16:12:19.120Z,101080.00
2018-09-22T16:17:23.650Z,101076.00
2018-09-22T16:22:27.461Z,101068.00
2018-09-22T16:27:31.553Z,101014.00
2018-09-22T16:32:35.375Z,101017.00
2018-09-22T16:37:39.218Z,100932.00
2018-09-22T16:42:43.038Z,100799.00
2018-09-22T16:47:47.109Z,100802.00
2018-09-22T16:52:51.185Z,100717.00
2018-09-22T16:57:55.417Z,100561.00
2018-09-22T17:03:00.049Z,100450.00
2018-09-22T17:08:04.182Z,100416.00
2018-09-22T17:13:08.250Z,100406.00
2018-09-22T17:18:12.061Z,100396.00
2018-09-22T17:23:16.177Z,100189.00
2018-09-22T17:28:20.429Z,100247.00
2018-09-22T17:33:24.454Z,100207.00
2018-09-22T17:38:28.549Z,100061.00
2018-09-22T17:43:32.454Z,100046.00
2018-09-22T17:48:36.269Z,100082.00
2018-09-22T17:53:40.681Z,99996.00
2018-09-22T17:58:44.759Z,99972.00
2018-09-22T18:03:48.897Z,99939.00
2018-09-22T18:08:53.023Z,99816.00
2018-09-22T18:13:56.928Z,99710.00
2018-09-22T18:19:01.066Z,99684.00
2018-09-22T18:24:05.219Z,99699.00
2018-09-22T18:29:09.962Z,99639.00
2018-09-22T18:34:13.756Z,99572.00
2018-09-22T18:39:17.825Z,99535.00
2018-09-22T18:44:21.876Z,99500.00
2018-09-22T18:49:25.685Z,99409.00
2018-09-22T18:54:29.746Z,99391.00
2018-09-22T18:59:33.804Z,99391.00
2018-09-22T19:04:37.975Z,99369.00
2018-09-22T19:09:41.776Z,99325.00
2018-09-22T19:14:51.026Z,99245.00
2018-09-22T19:20:08.166Z,99191.00
2018-09-22T19:25:14.289Z,99158.00
2018-09-22T19:30:29.637Z,99132.00
2018-09-22T19:35:40.946Z,99080.00
2018-09-22T19:40:53.601Z,99064.00
2018-09-22T19:46:02.095Z,99041.00
2018-09-22T19:51:07.800Z,99015.00
2018-09-22T19:56:11.945Z,98985.00
2018-09-22T20:01:15.741Z,98972.00
2018-09-22T20:06:19.788Z,98972.00
2018-09-22T20:11:24.004Z,98961.00
2018-09-22T20:16:28.034Z,98933.00
2018-09-22T20:21:31.832Z,98897.00
2018-09-22T20:26:36.669Z,98882.00
2018-09-22T20:31:40.798Z,98854.00
2018-09-22T20:36:44.894Z,98841.00
2018-09-22T20:41:48.938Z,98818.00
2018-09-22T20:46:53.044Z,98795.00
2018-09-22T20:51:57.237Z,98772.00
2018-09-22T20:57:01.298Z,98738.00
2018-09-22T21:02:05.369Z,98722.00
2018-09-22T21:07:09.528Z,98700.00
2018-09-22T21:12:13.625Z,98683.00
2018-09-22T21:17:17.437Z,98649.00
2018-09-22T21:22:21.266Z,98628.00
2018-09-22T21:27:25.401Z,98561.00
2018-09-22T21:32:29.248Z,98519.00
2018-09-22T21:37:33.397Z,98481.00
2018-09-22T21:42:37.469Z,98428.00
2018-09-22T21:47:41.524Z,98385.00
2018-09-22T21:52:45.578Z,98323.00
2018-09-22T21:57:49.616Z,98270.00
2018-09-22T22:02:53.821Z,98210.00
2018-09-22T22:07:58.081Z,98139.00
2018-09-22T22:13:01.929Z,98085.00
2018-09-22T22:18:05.754Z,98055.00
2018-09-22T22:23:10.328Z,98008.00
2018-09-22T22:28:14.131Z,97958.00
2018-09-22T22:33:18.182Z,97893.00
2018-09-22T22:38:22.262Z,97832.00
2018-09-22T22:43:26.386Z,97784.00
2018-09-22T22:48:30.201Z,97736.00
2018-09-22T22:53:34.160Z,97705.00
2018-09-22T22:58:38.240Z,97680.00
2018-09-22T23:03:42.045Z,97645.00
2018-09-22T23:08:46.200Z,97622.00
2018-09-22T23:13:50.283Z,97564.00
2018-09-22T23:18:54.378Z,97527.00
2018-09-22T23:23:58.462Z,97484.00
2018-09-22T23:29:02.531Z,97426.00
2018-09-22T23:34:06.653Z,97367.00
2018-09-22T23:39:11.610Z,97342.00
2018-09-22T23:44:16.067Z,97285.00
2018-09-22T23:49:20.125Z,97245.00
2018-09-22T23:54:24.000Z,97206.00
2018-09-22T23:59:30.417Z,97191.00
